Time;durP1;ratioP1;P1;durP2;ratioP2;P2;SDS_P1;SDS_P2;PMS_P1;PMS_P2;Temp;Humidity;BMP_temperature;BMP_pressure;BME280_temperature;BME280_humidity;BME280_pressure;Samples;Min_cycle;Max_cycle;Signal;HPM_P1;HPM_P2
2023/07/31 00:00:46;;;;;;;6.70;1.20;;;;;;;;;;4915973;29;20560;-70
2023/07/31 00:03:13;;;;;;;1.50;0.70;;;;;;;;;;4915216;29;20487;-69
2023/07/31 00:05:40;;;;;;;1.90;0.90;;;;;;;;;;4914947;29;20865;-70
2023/07/31 00:08:07;;;;;;;2.00;0.90;;;;;;;;;;4915149;29;20449;-69
2023/07/31 00:10:34;;;;;;;2.00;0.97;;;;;;;;;;4916875;29;20480;-69
2023/07/31 00:13:02;;;;;;;1.70;1.10;;;;;;;;;;4913020;29;20565;-69
2023/07/31 00:15:29;;;;;;;1.40;0.60;;;;;;;;;;4914582;29;20492;-68
2023/07/31 00:17:57;;;;;;;2.13;0.97;;;;;;;;;;4915423;29;20826;-70
2023/07/31 00:20:24;;;;;;;2.23;1.03;;;;;;;;;;4912856;29;20474;-68
2023/07/31 00:22:52;;;;;;;1.60;0.70;;;;;;;;;;4912794;29;20547;-70
2023/07/31 00:25:19;;;;;;;1.50;0.83;;;;;;;;;;4913701;29;20571;-69
2023/07/31 00:27:46;;;;;;;1.40;0.63;;;;;;;;;;4915010;29;20843;-69
2023/07/31 00:30:13;;;;;;;2.00;1.07;;;;;;;;;;4912879;29;20473;-68
2023/07/31 00:32:40;;;;;;;2.53;1.17;;;;;;;;;;4913955;29;20488;-67
2023/07/31 00:35:09;;;;;;;1.97;0.83;;;;;;;;;;4913955;29;20511;-68
2023/07/31 00:37:36;;;;;;;2.27;1.00;;;;;;;;;;4914589;29;20503;-68
2023/07/31 00:40:03;;;;;;;1.80;0.77;;;;;;;;;;4910292;29;20840;-68
2023/07/31 00:42:30;;;;;;;2.20;1.10;;;;;;;;;;4909566;29;20461;-68
2023/07/31 00:44:58;;;;;;;1.77;0.90;;;;;;;;;;4914089;29;20521;-68
2023/07/31 00:47:25;;;;;;;1.57;0.73;;;;;;;;;;4916988;29;20850;-68
2023/07/31 00:49:52;;;;;;;1.90;1.07;;;;;;;;;;4918692;29;20539;-68
2023/07/31 00:52:22;;;;;;;2.33;0.73;;;;;;;;;;4917631;29;20547;-68
2023/07/31 00:54:50;;;;;;;1.83;1.03;;;;;;;;;;4917667;29;20460;-68
2023/07/31 00:57:17;;;;;;;3.43;0.80;;;;;;;;;;4912490;29;21001;-68
2023/07/31 00:59:46;;;;;;;2.00;0.90;;;;;;;;;;4916165;29;20503;-68
2023/07/31 01:02:13;;;;;;;1.90;1.00;;;;;;;;;;4919254;29;20456;-68
2023/07/31 01:04:40;;;;;;;2.63;0.90;;;;;;;;;;4919177;29;21703;-68
2023/07/31 01:07:12;;;;;;;1.60;0.80;;;;;;;;;;4918590;29;21350;-69
2023/07/31 01:09:44;;;;;;;4.17;1.37;;;;;;;;;;4925395;29;20462;-70
2023/07/31 01:12:14;;;;;;;2.40;1.07;;;;;;;;;;4918413;29;20466;-68
2023/07/31 01:14:41;;;;;;;1.93;0.80;;;;;;;;;;4918418;29;20488;-68
2023/07/31 01:17:08;;;;;;;1.90;0.93;;;;;;;;;;4917988;29;20476;-68
2023/07/31 01:19:35;;;;;;;2.77;1.10;;;;;;;;;;4916956;29;20497;-69
2023/07/31 01:22:21;;;;;;;1.50;0.77;;;;;;;;;;4916193;29;20464;-68
2023/07/31 01:24:57;;;;;;;2.03;0.80;;;;;;;;;;4915972;29;20452;-68
2023/07/31 01:27:29;;;;;;;3.33;1.17;;;;;;;;;;4917135;29;20487;-68
2023/07/31 01:29:58;;;;;;;2.63;0.80;;;;;;;;;;4917009;29;20465;-68
2023/07/31 01:32:27;;;;;;;1.60;0.90;;;;;;;;;;4914796;29;20453;-68
2023/07/31 01:34:55;;;;;;;2.43;0.70;;;;;;;;;;4918868;29;20492;-70
2023/07/31 01:37:22;;;;;;;2.00;0.73;;;;;;;;;;4918200;29;20488;-69
2023/07/31 01:39:50;;;;;;;1.90;0.97;;;;;;;;;;4917980;29;20472;-69
2023/07/31 01:42:17;;;;;;;1.80;0.90;;;;;;;;;;4918305;29;20464;-70
2023/07/31 01:44:45;;;;;;;2.23;0.80;;;;;;;;;;4919903;29;20440;-70
2023/07/31 01:47:12;;;;;;;1.80;0.73;;;;;;;;;;4916049;29;20482;-70
2023/07/31 01:49:39;;;;;;;1.70;0.83;;;;;;;;;;4917491;29;20932;-70
2023/07/31 01:52:07;;;;;;;3.20;1.20;;;;;;;;;;4916978;29;20456;-68
2023/07/31 01:54:36;;;;;;;3.20;0.97;;;;;;;;;;4918195;29;20966;-68
2023/07/31 01:57:03;;;;;;;1.60;0.70;;;;;;;;;;4916782;29;20994;-68
2023/07/31 01:59:31;;;;;;;2.10;1.00;;;;;;;;;;4914584;29;20516;-69
2023/07/31 02:01:59;;;;;;;3.30;1.07;;;;;;;;;;4918528;29;20480;-68
2023/07/31 02:04:26;;;;;;;2.53;1.30;;;;;;;;;;4915879;29;20464;-70
2023/07/31 02:06:54;;;;;;;1.60;0.73;;;;;;;;;;4913177;29;20480;-68
2023/07/31 02:09:21;;;;;;;1.90;0.83;;;;;;;;;;4917707;29;20488;-68
2023/07/31 02:11:48;;;;;;;1.60;0.70;;;;;;;;;;4912463;29;20940;-69
2023/07/31 02:14:15;;;;;;;1.70;0.70;;;;;;;;;;4917063;29;20457;-70
2023/07/31 02:16:43;;;;;;;2.80;1.30;;;;;;;;;;4916718;29;20876;-68
2023/07/31 02:19:12;;;;;;;1.60;0.93;;;;;;;;;;4909073;29;20467;-68
2023/07/31 02:21:39;;;;;;;3.20;1.47;;;;;;;;;;4915717;29;20978;-69
2023/07/31 02:24:06;;;;;;;3.43;1.43;;;;;;;;;;4916914;29;20467;-68
2023/07/31 02:26:33;;;;;;;1.63;0.73;;;;;;;;;;4915651;29;20563;-68
2023/07/31 02:29:01;;;;;;;3.50;1.37;;;;;;;;;;4915834;29;20528;-68
2023/07/31 02:31:28;;;;;;;3.70;1.40;;;;;;;;;;4923523;29;21007;-69
2023/07/31 02:33:55;;;;;;;2.83;1.43;;;;;;;;;;4917223;29;20461;-68
2023/07/31 02:36:23;;;;;;;2.07;1.30;;;;;;;;;;4922762;29;20502;-69
2023/07/31 02:38:50;;;;;;;2.73;1.00;;;;;;;;;;4920363;29;20501;-68
2023/07/31 02:41:18;;;;;;;2.30;1.07;;;;;;;;;;4914776;29;20551;-69
2023/07/31 02:43:45;;;;;;;1.73;0.80;;;;;;;;;;4915802;29;20461;-69
2023/07/31 02:46:12;;;;;;;2.00;1.30;;;;;;;;;;4916156;29;20542;-69
2023/07/31 02:48:39;;;;;;;3.03;1.50;;;;;;;;;;4913248;29;20492;-69
2023/07/31 02:51:06;;;;;;;2.67;1.47;;;;;;;;;;4916680;29;20492;-68
2023/07/31 02:53:35;;;;;;;2.87;1.40;;;;;;;;;;4916930;29;20998;-70
2023/07/31 02:56:02;;;;;;;1.80;1.07;;;;;;;;;;4916310;29;20480;-68
2023/07/31 02:58:29;;;;;;;1.90;0.67;;;;;;;;;;4917950;29;20530;-68
2023/07/31 03:00:57;;;;;;;1.70;0.87;;;;;;;;;;4917536;29;20460;-69
2023/07/31 03:03:24;;;;;;;2.00;0.87;;;;;;;;;;4917472;29;20532;-68
2023/07/31 03:05:51;;;;;;;2.10;1.00;;;;;;;;;;4917371;29;20488;-68
2023/07/31 03:08:18;;;;;;;4.07;1.70;;;;;;;;;;4915861;29;20500;-69
2023/07/31 03:10:47;;;;;;;1.70;0.70;;;;;;;;;;4916503;29;20464;-68
2023/07/31 03:13:14;;;;;;;4.73;1.20;;;;;;;;;;4919633;29;20464;-68
2023/07/31 03:15:43;;;;;;;1.50;0.77;;;;;;;;;;4927454;29;21013;-69
2023/07/31 03:18:10;;;;;;;2.43;1.07;;;;;;;;;;4912178;29;20471;-68
2023/07/31 03:20:38;;;;;;;1.63;0.90;;;;;;;;;;4905379;29;20469;-68
2023/07/31 03:23:05;;;;;;;1.60;0.80;;;;;;;;;;4911742;29;20551;-68
2023/07/31 03:25:32;;;;;;;2.13;1.00;;;;;;;;;;4915694;29;20471;-68
2023/07/31 03:28:00;;;;;;;2.60;0.97;;;;;;;;;;4915696;29;20515;-69
2023/07/31 03:30:28;;;;;;;1.80;0.80;;;;;;;;;;4914680;29;20503;-70
2023/07/31 03:32:55;;;;;;;3.30;1.00;;;;;;;;;;4913907;29;20884;-72
2023/07/31 03:35:22;;;;;;;1.87;0.97;;;;;;;;;;4917090;29;20917;-69
2023/07/31 03:37:50;;;;;;;1.83;0.97;;;;;;;;;;4904580;29;20559;-69
2023/07/31 03:40:17;;;;;;;1.83;0.70;;;;;;;;;;4910675;29;20551;-70
2023/07/31 03:42:44;;;;;;;1.97;0.90;;;;;;;;;;4912484;29;20570;-70
2023/07/31 03:45:13;;;;;;;2.40;0.80;;;;;;;;;;4909079;29;20511;-70
2023/07/31 03:47:40;;;;;;;2.53;0.90;;;;;;;;;;4912362;29;20543;-70
2023/07/31 03:50:08;;;;;;;1.90;0.87;;;;;;;;;;4914026;29;20543;-69
2023/07/31 03:52:35;;;;;;;3.87;1.73;;;;;;;;;;4912593;29;20497;-69
2023/07/31 03:55:02;;;;;;;2.07;0.93;;;;;;;;;;4910988;29;20883;-69
2023/07/31 03:57:29;;;;;;;2.17;0.70;;;;;;;;;;4907661;29;20476;-70
2023/07/31 03:59:56;;;;;;;4.37;1.00;;;;;;;;;;4940345;23;20492;-68
2023/07/31 04:02:25;;;;;;;1.80;0.80;;;;;;;;;;4930754;29;21011;-68
2023/07/31 04:04:52;;;;;;;1.63;0.70;;;;;;;;;;4935215;28;20492;-69
2023/07/31 04:07:19;;;;;;;2.20;1.17;;;;;;;;;;4938545;29;20494;-69
2023/07/31 04:09:46;;;;;;;1.90;0.80;;;;;;;;;;4931836;29;20514;-67
2023/07/31 04:12:13;;;;;;;2.63;1.27;;;;;;;;;;4932674;29;20974;-67
2023/07/31 04:14:41;;;;;;;2.10;1.20;;;;;;;;;;4933124;29;20491;-69
2023/07/31 04:17:08;;;;;;;2.37;1.00;;;;;;;;;;4933095;29;20483;-67
2023/07/31 04:19:36;;;;;;;2.10;1.23;;;;;;;;;;4936227;29;20503;-67
2023/07/31 04:22:03;;;;;;;2.63;1.07;;;;;;;;;;4937901;28;20900;-69
2023/07/31 04:24:31;;;;;;;2.10;1.00;;;;;;;;;;4936036;29;20523;-69
2023/07/31 04:26:58;;;;;;;1.53;0.73;;;;;;;;;;4938152;29;20484;-67
2023/07/31 04:29:25;;;;;;;1.50;0.70;;;;;;;;;;4932610;29;20519;-68
2023/07/31 04:31:52;;;;;;;2.03;0.97;;;;;;;;;;4934448;29;20695;-70
2023/07/31 04:34:19;;;;;;;3.50;1.10;;;;;;;;;;4937233;29;20455;-68
2023/07/31 04:36:48;;;;;;;2.60;0.90;;;;;;;;;;4938813;29;20455;-69
2023/07/31 04:39:15;;;;;;;2.40;0.93;;;;;;;;;;4936966;29;20914;-68
2023/07/31 04:41:42;;;;;;;1.90;1.00;;;;;;;;;;4937415;29;20810;-67
2023/07/31 04:44:11;;;;;;;2.00;0.90;;;;;;;;;;4938447;29;20455;-68
2023/07/31 04:46:38;;;;;;;2.30;1.03;;;;;;;;;;4938040;29;20567;-67
2023/07/31 04:49:05;;;;;;;2.00;0.90;;;;;;;;;;4938278;29;20823;-67
2023/07/31 04:51:32;;;;;;;4.10;1.03;;;;;;;;;;4936754;29;20463;-67
2023/07/31 04:54:01;;;;;;;2.13;1.00;;;;;;;;;;4934276;29;20467;-68
2023/07/31 04:56:28;;;;;;;1.90;1.03;;;;;;;;;;4938506;29;20499;-68
2023/07/31 04:58:55;;;;;;;2.17;1.00;;;;;;;;;;4936850;29;20611;-67
2023/07/31 05:01:23;;;;;;;1.70;0.80;;;;;;;;;;4937397;29;20471;-68
2023/07/31 05:03:50;;;;;;;1.40;0.67;;;;;;;;;;4937727;29;20503;-68
2023/07/31 05:06:17;;;;;;;5.53;1.57;;;;;;;;;;4936907;28;20475;-67
2023/07/31 05:08:44;;;;;;;1.70;1.10;;;;;;;;;;4938603;29;20832;-67
2023/07/31 05:11:13;;;;;;;2.53;1.90;;;;;;;;;;4933470;29;20491;-67
2023/07/31 05:13:40;;;;;;;2.17;1.43;;;;;;;;;;4937032;29;20547;-67
2023/07/31 05:16:07;;;;;;;2.77;1.10;;;;;;;;;;4936620;28;20509;-68
2023/07/31 05:18:35;;;;;;;1.90;0.90;;;;;;;;;;4941252;29;20475;-69
2023/07/31 05:21:02;;;;;;;2.43;1.30;;;;;;;;;;4944454;29;20534;-70
2023/07/31 05:23:29;;;;;;;2.57;1.60;;;;;;;;;;4938006;29;20526;-69
2023/07/31 05:25:56;;;;;;;1.80;0.80;;;;;;;;;;4937383;29;20479;-68
2023/07/31 05:28:24;;;;;;;2.27;0.87;;;;;;;;;;4935396;29;20478;-70
2023/07/31 05:30:51;;;;;;;2.10;0.67;;;;;;;;;;4937062;29;20962;-69
2023/07/31 05:33:19;;;;;;;2.70;0.80;;;;;;;;;;4937030;29;20496;-70
2023/07/31 05:35:46;;;;;;;2.17;0.80;;;;;;;;;;4936721;29;20527;-70
2023/07/31 05:38:13;;;;;;;2.70;1.23;;;;;;;;;;4937891;29;20463;-69
2023/07/31 05:40:40;;;;;;;3.90;1.63;;;;;;;;;;4934425;29;20460;-68
2023/07/31 05:43:08;;;;;;;5.00;1.10;;;;;;;;;;4930918;29;20463;-69
2023/07/31 05:45:36;;;;;;;5.20;0.90;;;;;;;;;;4931594;29;20460;-68
2023/07/31 05:48:04;;;;;;;2.27;0.80;;;;;;;;;;4938034;29;21092;-69
2023/07/31 05:50:31;;;;;;;2.00;1.00;;;;;;;;;;4934197;29;20930;-69
2023/07/31 05:52:59;;;;;;;2.83;1.30;;;;;;;;;;4931307;29;20562;-69
2023/07/31 05:55:27;;;;;;;1.87;1.00;;;;;;;;;;4934667;29;20468;-69
2023/07/31 05:57:54;;;;;;;10.40;1.37;;;;;;;;;;4930150;29;21007;-69
2023/07/31 06:00:22;;;;;;;2.57;1.07;;;;;;;;;;4930387;29;20467;-69
2023/07/31 06:02:51;;;;;;;1.70;0.80;;;;;;;;;;4937822;29;20439;-70
2023/07/31 06:05:18;;;;;;;2.20;1.13;;;;;;;;;;4936751;29;20456;-69
2023/07/31 06:07:45;;;;;;;1.83;1.10;;;;;;;;;;4935246;29;20487;-69
2023/07/31 06:10:13;;;;;;;2.00;0.90;;;;;;;;;;4933237;29;20470;-71
2023/07/31 06:12:40;;;;;;;2.00;0.80;;;;;;;;;;4938594;29;20448;-70
2023/07/31 06:15:07;;;;;;;2.10;0.77;;;;;;;;;;4936340;29;20463;-69
2023/07/31 06:17:35;;;;;;;4.13;1.10;;;;;;;;;;4935932;29;20547;-69
2023/07/31 06:20:04;;;;;;;2.70;1.03;;;;;;;;;;4937431;29;20439;-70
2023/07/31 06:22:32;;;;;;;1.50;0.70;;;;;;;;;;4935163;29;20448;-71
2023/07/31 06:24:59;;;;;;;5.33;1.10;;;;;;;;;;4934698;29;20499;-69
2023/07/31 06:27:26;;;;;;;2.07;0.90;;;;;;;;;;4936076;28;20488;-70
2023/07/31 06:29:53;;;;;;;2.17;1.03;;;;;;;;;;4934882;29;20989;-70
2023/07/31 06:32:21;;;;;;;2.10;0.80;;;;;;;;;;4936937;29;20470;-70
2023/07/31 06:34:48;;;;;;;1.50;0.70;;;;;;;;;;4935778;29;20476;-70
2023/07/31 06:37:16;;;;;;;1.60;0.90;;;;;;;;;;4936075;28;20554;-71
2023/07/31 06:39:43;;;;;;;5.47;0.80;;;;;;;;;;4939088;28;20475;-70
2023/07/31 06:42:11;;;;;;;1.50;0.87;;;;;;;;;;4934584;29;20444;-70
2023/07/31 06:44:38;;;;;;;1.70;0.83;;;;;;;;;;4935479;29;20514;-70
2023/07/31 06:47:05;;;;;;;2.97;1.20;;;;;;;;;;4934824;29;20507;-70
2023/07/31 06:49:32;;;;;;;3.30;1.20;;;;;;;;;;4937157;29;20938;-70
2023/07/31 06:51:59;;;;;;;1.40;0.77;;;;;;;;;;4935898;29;20526;-70
2023/07/31 06:54:28;;;;;;;1.40;0.60;;;;;;;;;;4937360;29;20444;-70
2023/07/31 06:56:55;;;;;;;1.37;0.57;;;;;;;;;;4935580;29;21034;-68
2023/07/31 06:59:22;;;;;;;3.43;0.93;;;;;;;;;;4936700;29;20524;-68
2023/07/31 07:01:49;;;;;;;2.23;1.17;;;;;;;;;;4933552;29;20887;-68
2023/07/31 07:04:16;;;;;;;1.97;1.00;;;;;;;;;;4935766;29;20450;-68
2023/07/31 07:06:44;;;;;;;1.90;0.93;;;;;;;;;;4935248;29;20969;-68
2023/07/31 07:09:11;;;;;;;1.50;0.80;;;;;;;;;;4932917;29;20482;-68
2023/07/31 07:11:39;;;;;;;1.50;0.90;;;;;;;;;;4934652;29;20451;-68
2023/07/31 07:14:06;;;;;;;1.67;0.80;;;;;;;;;;4935475;29;20440;-68
2023/07/31 07:16:33;;;;;;;1.60;0.77;;;;;;;;;;4935019;29;20507;-69
2023/07/31 07:19:01;;;;;;;2.30;1.00;;;;;;;;;;4934501;29;20440;-67
2023/07/31 07:21:28;;;;;;;3.33;1.00;;;;;;;;;;4936783;29;20503;-67
2023/07/31 07:23:55;;;;;;;1.43;0.80;;;;;;;;;;4937641;29;20439;-68
2023/07/31 07:26:22;;;;;;;1.80;0.80;;;;;;;;;;4932005;29;21017;-68
2023/07/31 07:28:51;;;;;;;1.73;1.13;;;;;;;;;;4936986;29;20487;-68
2023/07/31 07:31:18;;;;;;;3.73;0.87;;;;;;;;;;4934315;29;20591;-68
2023/07/31 07:33:45;;;;;;;3.43;1.13;;;;;;;;;;4934905;29;20566;-68
2023/07/31 07:36:13;;;;;;;1.73;0.73;;;;;;;;;;4940219;29;20479;-68
2023/07/31 07:38:41;;;;;;;1.77;0.77;;;;;;;;;;4945516;29;20435;-68
2023/07/31 07:41:08;;;;;;;2.33;0.90;;;;;;;;;;4942834;28;20452;-68
2023/07/31 07:43:35;;;;;;;3.50;1.47;;;;;;;;;;4944767;29;20450;-68
2023/07/31 07:46:04;;;;;;;1.63;0.80;;;;;;;;;;4934270;29;21018;-68
2023/07/31 07:48:31;;;;;;;2.43;0.77;;;;;;;;;;4934454;29;20479;-68
2023/07/31 07:50:58;;;;;;;2.03;1.00;;;;;;;;;;4933820;29;20440;-68
2023/07/31 07:53:26;;;;;;;4.50;1.07;;;;;;;;;;4936357;29;20482;-67
2023/07/31 07:55:53;;;;;;;2.30;0.93;;;;;;;;;;4933349;29;20479;-68
2023/07/31 07:58:20;;;;;;;1.80;0.73;;;;;;;;;;4933299;29;20471;-68
2023/07/31 08:00:50;;;;;;;4.23;1.67;;;;;;;;;;4934472;29;20468;-67
2023/07/31 08:03:19;;;;;;;4.77;1.77;;;;;;;;;;4934913;29;20428;-67
2023/07/31 08:05:46;;;;;;;2.37;1.03;;;;;;;;;;4931002;29;20570;-67
2023/07/31 08:08:16;;;;;;;4.53;1.20;;;;;;;;;;4932422;29;20475;-68
2023/07/31 08:10:43;;;;;;;5.33;1.63;;;;;;;;;;4933193;29;20444;-67
2023/07/31 08:13:11;;;;;;;2.20;1.63;;;;;;;;;;4935559;29;20467;-68
2023/07/31 08:15:38;;;;;;;1.90;0.90;;;;;;;;;;4931266;29;20541;-67
2023/07/31 08:18:05;;;;;;;1.93;0.80;;;;;;;;;;4935144;29;20435;-67
2023/07/31 08:20:33;;;;;;;2.90;1.20;;;;;;;;;;4933024;29;21001;-66
2023/07/31 08:23:01;;;;;;;2.03;1.17;;;;;;;;;;4935966;29;20819;-67
2023/07/31 08:25:28;;;;;;;2.00;1.33;;;;;;;;;;4932920;29;20507;-68
2023/07/31 08:27:55;;;;;;;2.13;1.40;;;;;;;;;;4933074;29;21017;-67
2023/07/31 08:30:23;;;;;;;3.90;1.23;;;;;;;;;;4933487;29;20452;-68
2023/07/31 08:32:50;;;;;;;2.00;1.00;;;;;;;;;;4932677;29;20495;-66
2023/07/31 08:35:18;;;;;;;1.40;0.90;;;;;;;;;;4934546;28;20827;-67
2023/07/31 08:37:46;;;;;;;1.83;1.10;;;;;;;;;;4932389;29;20827;-67
2023/07/31 08:40:14;;;;;;;3.03;0.93;;;;;;;;;;4933435;29;20444;-67
2023/07/31 08:42:45;;;;;;;4.60;1.60;;;;;;;;;;4936337;29;20518;-67
2023/07/31 08:45:15;;;;;;;4.07;1.57;;;;;;;;;;4935333;28;20436;-67
2023/07/31 08:47:42;;;;;;;1.93;0.80;;;;;;;;;;4933634;29;20463;-67
2023/07/31 08:50:10;;;;;;;3.20;1.40;;;;;;;;;;4934684;29;20475;-67
2023/07/31 08:52:37;;;;;;;1.73;1.10;;;;;;;;;;4934564;29;20933;-70
2023/07/31 08:55:06;;;;;;;2.53;1.37;;;;;;;;;;4935967;29;20523;-67
2023/07/31 08:57:35;;;;;;;3.17;1.00;;;;;;;;;;4935180;29;20518;-67
2023/07/31 09:00:02;;;;;;;2.23;1.23;;;;;;;;;;4935186;29;20526;-67
2023/07/31 09:02:33;;;;;;;2.53;1.00;;;;;;;;;;4937246;29;20471;-68
2023/07/31 09:05:00;;;;;;;1.27;0.60;;;;;;;;;;4934376;29;20436;-67
2023/07/31 09:07:27;;;;;;;2.30;1.13;;;;;;;;;;4935990;29;20467;-68
2023/07/31 09:09:54;;;;;;;2.47;1.17;;;;;;;;;;4936239;28;20485;-68
2023/07/31 09:12:23;;;;;;;1.63;0.90;;;;;;;;;;4937878;29;20471;-67
2023/07/31 09:14:50;;;;;;;3.87;1.40;;;;;;;;;;4940684;29;20475;-68
2023/07/31 09:17:18;;;;;;;4.37;1.80;;;;;;;;;;4935804;29;20483;-67
2023/07/31 09:19:45;;;;;;;5.17;2.03;;;;;;;;;;4937674;29;20484;-66
2023/07/31 09:22:12;;;;;;;1.80;1.30;;;;;;;;;;4938750;29;20445;-68
2023/07/31 09:24:39;;;;;;;2.10;1.00;;;;;;;;;;4938943;28;20475;-68
2023/07/31 09:27:07;;;;;;;2.00;1.10;;;;;;;;;;4931496;29;20546;-67
2023/07/31 09:29:35;;;;;;;1.60;0.90;;;;;;;;;;4935691;29;20507;-67
2023/07/31 09:32:03;;;;;;;4.57;1.80;;;;;;;;;;4939561;29;20546;-67
2023/07/31 09:34:31;;;;;;;1.90;1.00;;;;;;;;;;4936293;29;20475;-67
2023/07/31 09:36:59;;;;;;;1.80;1.10;;;;;;;;;;4936625;29;20519;-67
2023/07/31 09:39:26;;;;;;;1.83;1.00;;;;;;;;;;4936817;29;20540;-67
2023/07/31 09:41:55;;;;;;;2.30;1.00;;;;;;;;;;4935795;29;20518;-67
2023/07/31 09:44:22;;;;;;;1.80;1.17;;;;;;;;;;4937977;29;20468;-67
2023/07/31 09:46:51;;;;;;;2.20;1.20;;;;;;;;;;4936810;29;20536;-68
2023/07/31 09:49:18;;;;;;;1.37;0.67;;;;;;;;;;4937268;29;20538;-65
2023/07/31 09:51:45;;;;;;;2.07;1.10;;;;;;;;;;4934868;29;20484;-67
2023/07/31 09:54:13;;;;;;;3.47;1.47;;;;;;;;;;4938790;29;21001;-67
2023/07/31 09:56:44;;;;;;;3.27;0.93;;;;;;;;;;4936219;29;20492;-67
2023/07/31 09:59:12;;;;;;;2.50;1.20;;;;;;;;;;4935774;29;20938;-67
2023/07/31 10:01:40;;;;;;;2.50;1.00;;;;;;;;;;4938517;29;20465;-67
2023/07/31 10:04:09;;;;;;;3.57;1.50;;;;;;;;;;4935027;29;20495;-68
2023/07/31 10:06:37;;;;;;;3.10;1.57;;;;;;;;;;4936710;29;20543;-67
2023/07/31 10:09:04;;;;;;;2.77;1.70;;;;;;;;;;4935544;29;20479;-68
2023/07/31 10:11:32;;;;;;;1.80;1.17;;;;;;;;;;4937187;28;20542;-67
2023/07/31 10:13:59;;;;;;;1.70;0.90;;;;;;;;;;4937381;29;20867;-67
2023/07/31 10:16:26;;;;;;;2.20;1.10;;;;;;;;;;4936293;28;20484;-67
2023/07/31 10:18:54;;;;;;;1.90;1.20;;;;;;;;;;4931936;29;20452;-67
2023/07/31 10:21:22;;;;;;;2.50;1.27;;;;;;;;;;4937553;29;20440;-67
2023/07/31 10:23:51;;;;;;;2.47;1.00;;;;;;;;;;4936136;28;20527;-68
2023/07/31 10:26:18;;;;;;;2.10;1.40;;;;;;;;;;4936035;29;20550;-67
2023/07/31 10:28:46;;;;;;;1.53;0.97;;;;;;;;;;4936569;29;20575;-67
2023/07/31 10:31:15;;;;;;;2.50;1.27;;;;;;;;;;4936156;29;20440;-67
2023/07/31 10:33:42;;;;;;;1.40;0.70;;;;;;;;;;4936104;29;20464;-67
2023/07/31 10:36:16;;;;;;;1.83;1.00;;;;;;;;;;4936701;29;20455;-67
2023/07/31 10:38:45;;;;;;;2.50;1.50;;;;;;;;;;4935269;29;20896;-67
2023/07/31 10:41:12;;;;;;;2.10;1.10;;;;;;;;;;4934527;29;20551;-67
2023/07/31 10:43:40;;;;;;;2.37;1.10;;;;;;;;;;4936466;29;20443;-67
2023/07/31 10:46:09;;;;;;;1.90;1.07;;;;;;;;;;4935579;29;20542;-66
2023/07/31 10:48:37;;;;;;;2.10;1.20;;;;;;;;;;4936414;29;20479;-67
2023/07/31 10:51:08;;;;;;;2.13;1.13;;;;;;;;;;4935627;29;20526;-68
2023/07/31 10:53:36;;;;;;;1.50;0.90;;;;;;;;;;4938014;29;20479;-68
2023/07/31 10:56:05;;;;;;;2.13;1.00;;;;;;;;;;4937529;29;20484;-68
2023/07/31 10:58:33;;;;;;;2.30;1.30;;;;;;;;;;4934419;29;20467;-69
2023/07/31 11:01:02;;;;;;;3.60;1.00;;;;;;;;;;4933944;29;20452;-66
2023/07/31 11:03:42;;;;;;;3.37;1.30;;;;;;;;;;4934753;29;20466;-68
2023/07/31 11:06:09;;;;;;;2.90;1.13;;;;;;;;;;4936328;29;20565;-68
2023/07/31 11:08:37;;;;;;;2.70;1.27;;;;;;;;;;4933758;29;20915;-68
2023/07/31 11:11:09;;;;;;;1.83;0.93;;;;;;;;;;4933559;29;20447;-67
2023/07/31 11:13:41;;;;;;;3.73;1.77;;;;;;;;;;4936467;29;20539;-67
2023/07/31 11:16:08;;;;;;;2.90;1.23;;;;;;;;;;4937227;29;20462;-68
2023/07/31 11:18:36;;;;;;;1.73;1.03;;;;;;;;;;4930994;29;20794;-68
2023/07/31 11:21:03;;;;;;;3.97;1.23;;;;;;;;;;4937014;29;20812;-68
2023/07/31 11:23:30;;;;;;;2.83;1.27;;;;;;;;;;4935897;29;20461;-68
2023/07/31 11:26:01;;;;;;;4.57;1.80;;;;;;;;;;4936849;29;20474;-67
2023/07/31 11:28:34;;;;;;;2.13;1.30;;;;;;;;;;4933447;29;20448;-68
2023/07/31 11:31:01;;;;;;;3.07;1.23;;;;;;;;;;4937272;29;20432;-67
2023/07/31 11:33:29;;;;;;;3.43;1.27;;;;;;;;;;4934264;29;20874;-68
2023/07/31 11:35:56;;;;;;;2.00;1.13;;;;;;;;;;4935329;29;20490;-66
2023/07/31 11:38:24;;;;;;;1.73;0.90;;;;;;;;;;4940777;29;20454;-67
2023/07/31 11:40:51;;;;;;;2.43;1.20;;;;;;;;;;4933371;29;20935;-67
2023/07/31 11:43:19;;;;;;;1.93;1.10;;;;;;;;;;4938981;29;20563;-68
2023/07/31 11:45:48;;;;;;;3.50;1.37;;;;;;;;;;4933551;29;20484;-68
2023/07/31 11:48:20;;;;;;;2.33;1.30;;;;;;;;;;4934301;29;20455;-68
2023/07/31 11:50:49;;;;;;;1.70;1.07;;;;;;;;;;4934911;28;20475;-68
2023/07/31 11:53:17;;;;;;;2.87;1.20;;;;;;;;;;4931144;29;21024;-68
2023/07/31 11:55:45;;;;;;;2.30;1.23;;;;;;;;;;4935748;29;20467;-69
2023/07/31 11:58:12;;;;;;;2.40;1.17;;;;;;;;;;4938167;29;20455;-68
2023/07/31 12:00:39;;;;;;;4.87;1.50;;;;;;;;;;4936546;29;20526;-67
2023/07/31 12:03:08;;;;;;;2.40;1.13;;;;;;;;;;4935257;28;20458;-67
2023/07/31 12:05:35;;;;;;;2.10;1.30;;;;;;;;;;4936979;29;20444;-67
2023/07/31 12:08:10;;;;;;;2.07;1.03;;;;;;;;;;4942263;29;20475;-68
2023/07/31 12:10:37;;;;;;;2.90;1.30;;;;;;;;;;4944334;29;20502;-68
2023/07/31 12:13:05;;;;;;;2.07;1.33;;;;;;;;;;4941102;29;20452;-68
2023/07/31 12:15:36;;;;;;;5.03;1.20;;;;;;;;;;4943021;29;20431;-67
2023/07/31 12:18:05;;;;;;;2.13;1.10;;;;;;;;;;4933251;29;20936;-67
2023/07/31 12:20:35;;;;;;;2.07;1.20;;;;;;;;;;4933686;29;20882;-67
2023/07/31 12:23:02;;;;;;;2.17;0.90;;;;;;;;;;4931996;28;20483;-66
2023/07/31 12:25:33;;;;;;;3.70;1.30;;;;;;;;;;4934466;28;20463;-68
2023/07/31 12:28:06;;;;;;;2.43;1.10;;;;;;;;;;4934600;29;20478;-69
2023/07/31 12:30:34;;;;;;;3.77;1.53;;;;;;;;;;4937102;29;20470;-67
2023/07/31 12:33:05;;;;;;;2.63;1.40;;;;;;;;;;4935988;29;20846;-69
2023/07/31 12:35:37;;;;;;;2.10;1.20;;;;;;;;;;4933031;29;20523;-68
2023/07/31 12:38:04;;;;;;;2.47;1.17;;;;;;;;;;4933763;29;20491;-68
2023/07/31 12:40:32;;;;;;;2.23;1.27;;;;;;;;;;4934411;29;20475;-67
2023/07/31 12:42:59;;;;;;;3.30;1.57;;;;;;;;;;4936426;29;20468;-68
2023/07/31 12:45:26;;;;;;;2.60;1.00;;;;;;;;;;4938489;29;20436;-67
2023/07/31 12:47:53;;;;;;;2.47;1.20;;;;;;;;;;4937477;29;20510;-68
2023/07/31 12:50:21;;;;;;;2.57;1.20;;;;;;;;;;4938311;29;20480;-68
2023/07/31 12:52:49;;;;;;;2.53;1.20;;;;;;;;;;4937751;29;20942;-68
2023/07/31 12:55:18;;;;;;;2.53;1.60;;;;;;;;;;4936508;29;20824;-68
2023/07/31 12:57:45;;;;;;;2.27;1.10;;;;;;;;;;4938075;29;20439;-67
2023/07/31 13:00:13;;;;;;;2.77;1.30;;;;;;;;;;4936973;28;20467;-67
2023/07/31 13:02:40;;;;;;;2.10;1.03;;;;;;;;;;4936793;29;20446;-68
2023/07/31 13:05:08;;;;;;;3.03;1.00;;;;;;;;;;4936479;29;20522;-67
2023/07/31 13:07:35;;;;;;;1.40;0.97;;;;;;;;;;4937496;29;20543;-68
2023/07/31 13:10:04;;;;;;;2.70;1.57;;;;;;;;;;4935746;29;20479;-68
2023/07/31 13:12:31;;;;;;;3.70;1.40;;;;;;;;;;4936896;29;20439;-67
2023/07/31 13:14:58;;;;;;;5.23;1.27;;;;;;;;;;4936522;29;20872;-68
2023/07/31 13:17:26;;;;;;;3.17;1.20;;;;;;;;;;4935103;29;21060;-67
2023/07/31 13:19:53;;;;;;;2.93;1.47;;;;;;;;;;4933287;29;20465;-68
2023/07/31 13:22:20;;;;;;;3.77;1.80;;;;;;;;;;4937345;29;20439;-67
2023/07/31 13:24:47;;;;;;;2.93;1.43;;;;;;;;;;4937420;29;20885;-68
2023/07/31 13:27:18;;;;;;;3.03;1.50;;;;;;;;;;4936693;29;20522;-67
2023/07/31 13:29:45;;;;;;;2.37;1.07;;;;;;;;;;4936343;29;20906;-68
2023/07/31 13:32:13;;;;;;;3.00;1.77;;;;;;;;;;4937400;29;21022;-68
2023/07/31 13:34:41;;;;;;;3.10;1.23;;;;;;;;;;4936027;29;20462;-68
2023/07/31 13:37:08;;;;;;;2.37;1.20;;;;;;;;;;4935753;29;20511;-68
2023/07/31 13:39:35;;;;;;;2.03;1.13;;;;;;;;;;4937770;29;20510;-67
2023/07/31 13:42:06;;;;;;;2.13;1.00;;;;;;;;;;4937960;29;20518;-68
2023/07/31 13:44:34;;;;;;;3.80;1.20;;;;;;;;;;4937104;29;20872;-67
2023/07/31 13:47:02;;;;;;;1.97;1.10;;;;;;;;;;4934570;29;20510;-68
2023/07/31 13:49:29;;;;;;;1.93;1.40;;;;;;;;;;4934964;28;20555;-68
2023/07/31 13:51:56;;;;;;;2.83;1.30;;;;;;;;;;4934707;29;20468;-68
2023/07/31 13:54:23;;;;;;;3.50;1.13;;;;;;;;;;4938422;29;20521;-68
2023/07/31 13:56:51;;;;;;;2.70;1.40;;;;;;;;;;4937853;29;20463;-68
2023/07/31 13:59:18;;;;;;;1.70;0.80;;;;;;;;;;4936296;29;20464;-68
2023/07/31 14:01:46;;;;;;;3.73;1.33;;;;;;;;;;4936438;29;20447;-69
2023/07/31 14:04:14;;;;;;;2.03;1.07;;;;;;;;;;4935188;29;20492;-68
2023/07/31 14:06:41;;;;;;;3.57;1.40;;;;;;;;;;4939671;29;20467;-68
2023/07/31 14:09:08;;;;;;;2.40;1.20;;;;;;;;;;4935130;29;20507;-68
2023/07/31 14:11:35;;;;;;;2.47;1.40;;;;;;;;;;4936961;29;20574;-68
2023/07/31 14:14:03;;;;;;;4.87;1.23;;;;;;;;;;4938687;28;20475;-67
2023/07/31 14:16:30;;;;;;;2.67;1.47;;;;;;;;;;4935400;29;20468;-67
2023/07/31 14:18:59;;;;;;;2.27;1.37;;;;;;;;;;4940206;29;20455;-68
2023/07/31 14:21:26;;;;;;;3.03;1.70;;;;;;;;;;4938077;29;20962;-68
2023/07/31 14:23:53;;;;;;;2.70;1.50;;;;;;;;;;4935819;29;20440;-67
2023/07/31 14:26:20;;;;;;;1.90;1.23;;;;;;;;;;4937164;29;20842;-67
2023/07/31 14:28:47;;;;;;;3.90;1.40;;;;;;;;;;4936780;29;20454;-67
2023/07/31 14:31:14;;;;;;;2.40;1.40;;;;;;;;;;4936438;29;21319;-67
2023/07/31 14:33:42;;;;;;;2.33;1.30;;;;;;;;;;4934068;29;20442;-68
2023/07/31 14:36:11;;;;;;;1.80;0.90;;;;;;;;;;4934838;29;20468;-68
2023/07/31 14:38:38;;;;;;;2.57;1.20;;;;;;;;;;4937584;29;20887;-68
2023/07/31 14:41:05;;;;;;;3.03;1.50;;;;;;;;;;4935911;29;20470;-67
2023/07/31 14:43:32;;;;;;;2.73;1.40;;;;;;;;;;4936497;29;20440;-67
2023/07/31 14:45:59;;;;;;;2.40;1.20;;;;;;;;;;4936595;28;20483;-68